Time;durP1;ratioP1;P1;durP2;ratioP2;P2;SDS_P1;SDS_P2;PMS_P1;PMS_P2;Temp;Humidity;BMP_temperature;BMP_pressure;BME280_temperature;BME280_humidity;BME280_pressure;Samples;Min_cycle;Max_cycle;Signal;HPM_P1;HPM_P2
2023/08/07 00:00:32;;;;;;;0.60;0.60;;;13.40;99.90;;;;;;5096759;28;20196;-70
2023/08/07 00:02:58;;;;;;;0.50;0.50;;;13.40;99.90;;;;;;5095900;28;20281;-70
2023/08/07 00:05:23;;;;;;;0.50;0.50;;;13.40;99.90;;;;;;5095487;28;20199;-70
2023/08/07 00:07:49;;;;;;;0.50;0.50;;;13.40;99.90;;;;;;5095820;28;20554;-69
2023/08/07 00:10:15;;;;;;;0.60;0.60;;;13.40;99.90;;;;;;5096275;28;20241;-71
2023/08/07 00:12:41;;;;;;;0.40;0.40;;;13.40;99.90;;;;;;5096413;28;20200;-71
2023/08/07 00:15:07;;;;;;;1.25;0.75;;;13.40;99.90;;;;;;5096457;28;20196;-71
2023/08/07 00:17:33;;;;;;;0.75;0.73;;;13.40;99.90;;;;;;5094647;28;20231;-71
2023/08/07 00:19:58;;;;;;;3.80;0.95;;;13.40;99.90;;;;;;5096156;28;20231;-71
2023/08/07 00:22:25;;;;;;;0.40;0.40;;;13.40;99.90;;;;;;5094472;28;20766;-71
2023/08/07 00:24:51;;;;;;;0.40;0.40;;;13.40;99.90;;;;;;5095797;28;20196;-71
2023/08/07 00:27:16;;;;;;;0.60;0.60;;;13.50;99.90;;;;;;5095713;28;20298;-72
2023/08/07 00:29:42;;;;;;;0.52;0.52;;;13.50;99.90;;;;;;5095824;28;20245;-71
2023/08/07 00:32:08;;;;;;;0.50;0.50;;;13.50;99.90;;;;;;5095971;28;20199;-71
2023/08/07 00:34:34;;;;;;;0.50;0.50;;;13.50;99.90;;;;;;5095518;28;20196;-71
2023/08/07 00:37:00;;;;;;;0.50;0.50;;;13.50;99.90;;;;;;5096034;28;20723;-71
2023/08/07 00:39:26;;;;;;;0.45;0.45;;;13.60;99.90;;;;;;5095356;28;20184;-70
2023/08/07 00:41:52;;;;;;;0.40;0.40;;;13.60;99.90;;;;;;5095706;28;20204;-70
2023/08/07 00:44:17;;;;;;;0.50;0.50;;;13.50;99.90;;;;;;5095622;28;20188;-70
2023/08/07 00:46:43;;;;;;;0.40;0.40;;;13.50;99.90;;;;;;5095539;28;20196;-71
2023/08/07 00:49:11;;;;;;;0.40;0.40;;;13.50;99.90;;;;;;5095818;28;20193;-71
2023/08/07 00:51:39;;;;;;;0.40;0.40;;;13.60;99.90;;;;;;5095529;28;20671;-71
2023/08/07 00:54:07;;;;;;;1.77;0.50;;;13.50;99.90;;;;;;5095686;28;20223;-70
2023/08/07 00:56:33;;;;;;;0.50;0.50;;;13.50;99.90;;;;;;5095629;28;20184;-71
2023/08/07 00:59:00;;;;;;;0.50;0.50;;;13.60;99.90;;;;;;5095602;28;20184;-71
2023/08/07 01:01:27;;;;;;;0.95;0.80;;;13.60;99.90;;;;;;5076865;28;20301;-71
2023/08/07 01:03:53;;;;;;;0.40;0.40;;;13.60;99.90;;;;;;5099931;22;20446;-79
2023/08/07 01:06:19;;;;;;;0.50;0.50;;;13.60;99.90;;;;;;5089261;28;20216;-79
2023/08/07 01:08:46;;;;;;;1.00;1.00;;;13.70;99.90;;;;;;5095790;28;20257;-79
2023/08/07 01:11:21;;;;;;;0.30;0.30;;;13.60;99.90;;;;;;5095514;28;20192;-79
2023/08/07 01:14:13;;;;;;;0.50;0.50;;;13.70;99.90;;;;;;5094815;28;20210;-79
2023/08/07 01:16:52;;;;;;;0.40;0.40;;;13.70;99.90;;;;;;5094579;28;20206;-79
2023/08/07 01:19:27;;;;;;;0.47;0.47;;;13.70;99.90;;;;;;5076674;28;20195;-79
2023/08/07 01:22:19;;;;;;;0.40;0.40;;;13.70;99.90;;;;;;5076584;28;20211;-79
2023/08/07 01:24:47;;;;;;;0.40;0.40;;;13.70;99.90;;;;;;5073098;28;20688;-79
2023/08/07 01:27:18;;;;;;;0.40;0.40;;;13.80;99.90;;;;;;5094686;28;20655;-78
2023/08/07 01:30:04;;;;;;;0.40;0.40;;;13.80;99.90;;;;;;5094627;28;20195;-78
2023/08/07 01:32:36;;;;;;;0.40;0.40;;;13.80;99.90;;;;;;5094362;28;20572;-78
2023/08/07 01:35:05;;;;;;;0.50;0.50;;;13.80;99.90;;;;;;5094341;28;20236;-79
2023/08/07 01:37:33;;;;;;;0.40;0.40;;;13.80;99.90;;;;;;5094447;28;20206;-79
2023/08/07 01:40:03;;;;;;;0.30;0.30;;;13.80;99.90;;;;;;5093416;28;20192;-79
2023/08/07 01:42:29;;;;;;;0.40;0.40;;;13.80;99.90;;;;;;5094440;28;20295;-80
2023/08/07 01:44:55;;;;;;;0.47;0.47;;;13.80;99.90;;;;;;5094410;28;20264;-79
2023/08/07 01:47:21;;;;;;;0.47;0.47;;;13.80;99.90;;;;;;5092821;28;20189;-79
2023/08/07 01:49:46;;;;;;;0.40;0.40;;;13.90;99.90;;;;;;5093186;28;20207;-79
2023/08/07 01:52:13;;;;;;;0.45;0.45;;;13.90;99.90;;;;;;5093194;28;20219;-79
2023/08/07 01:54:38;;;;;;;0.40;0.40;;;13.90;99.90;;;;;;5094049;28;20200;-80
2023/08/07 01:57:04;;;;;;;0.45;0.45;;;13.90;99.90;;;;;;5093333;28;20207;-79
2023/08/07 01:59:30;;;;;;;0.40;0.40;;;13.90;99.90;;;;;;5093691;28;20218;-79
2023/08/07 02:01:56;;;;;;;0.40;0.40;;;13.90;99.90;;;;;;5093393;28;20231;-79
2023/08/07 02:04:21;;;;;;;0.50;0.50;;;13.90;99.90;;;;;;5088839;28;20224;-79
2023/08/07 02:06:47;;;;;;;0.35;0.35;;;14.00;99.90;;;;;;5073066;28;20238;-79
2023/08/07 02:09:13;;;;;;;0.40;0.40;;;14.00;99.90;;;;;;5072910;28;20181;-79
2023/08/07 02:11:38;;;;;;;0.40;0.40;;;14.00;99.90;;;;;;5073043;28;20203;-79
2023/08/07 02:14:04;;;;;;;0.40;0.40;;;14.00;99.90;;;;;;5055020;28;20627;-79
2023/08/07 02:16:30;;;;;;;0.40;0.40;;;14.00;99.90;;;;;;5073298;28;20193;-80
2023/08/07 02:18:55;;;;;;;0.40;0.40;;;14.10;99.90;;;;;;5055185;28;20207;-80
2023/08/07 02:21:21;;;;;;;0.30;0.30;;;14.10;99.90;;;;;;5055501;28;20239;-79
2023/08/07 02:23:47;;;;;;;0.55;0.50;;;14.10;99.90;;;;;;5073650;28;20223;-78
2023/08/07 02:26:13;;;;;;;0.30;0.30;;;14.10;99.90;;;;;;5073607;28;20275;-79
2023/08/07 02:28:38;;;;;;;0.40;0.40;;;14.10;99.90;;;;;;5073171;28;20220;-78
2023/08/07 02:31:04;;;;;;;0.50;0.50;;;14.10;99.90;;;;;;5072880;28;20189;-80
2023/08/07 02:33:30;;;;;;;0.43;0.43;;;14.10;99.90;;;;;;5072799;28;20971;-79
2023/08/07 02:35:56;;;;;;;0.40;0.40;;;14.20;99.90;;;;;;5072815;28;20211;-78
2023/08/07 02:38:22;;;;;;;0.40;0.40;;;14.10;99.90;;;;;;5072903;28;20685;-79
2023/08/07 02:40:48;;;;;;;0.40;0.40;;;14.20;99.90;;;;;;5073173;28;20189;-79
2023/08/07 02:43:14;;;;;;;0.40;0.40;;;14.20;99.90;;;;;;5072636;28;20288;-79
2023/08/07 02:45:39;;;;;;;0.40;0.40;;;14.20;99.90;;;;;;5072390;28;20189;-80
2023/08/07 02:48:05;;;;;;;0.40;0.40;;;14.30;99.90;;;;;;5072646;28;20196;-79
2023/08/07 02:50:32;;;;;;;0.40;0.40;;;14.30;99.90;;;;;;5070661;28;20204;-79
2023/08/07 02:53:01;;;;;;;0.40;0.40;;;14.30;99.90;;;;;;5072299;28;20837;-79
2023/08/07 02:55:27;;;;;;;0.40;0.40;;;14.30;99.90;;;;;;5054189;28;20720;-79
2023/08/07 02:57:53;;;;;;;0.30;0.30;;;14.30;99.90;;;;;;5071689;28;20197;-79
2023/08/07 03:00:19;;;;;;;0.40;0.40;;;14.30;99.90;;;;;;5071095;28;20189;-79
2023/08/07 03:02:44;;;;;;;0.60;0.60;;;14.30;99.90;;;;;;5060715;28;20216;-79
2023/08/07 03:05:10;;;;;;;0.40;0.40;;;14.30;99.90;;;;;;5082113;28;20285;-79
2023/08/07 03:07:36;;;;;;;0.40;0.40;;;14.20;99.90;;;;;;5074806;28;20200;-79
2023/08/07 03:10:02;;;;;;;0.35;0.35;;;14.20;99.90;;;;;;5093050;28;20279;-79
2023/08/07 03:12:28;;;;;;;0.40;0.40;;;14.20;99.90;;;;;;5075048;28;20200;-79
2023/08/07 03:14:53;;;;;;;0.40;0.40;;;14.20;99.90;;;;;;5074773;28;20268;-80
2023/08/07 03:17:20;;;;;;;0.32;0.32;;;14.20;99.90;;;;;;5092593;28;20733;-79
2023/08/07 03:19:46;;;;;;;0.40;0.40;;;14.20;99.90;;;;;;5074652;28;20196;-79
2023/08/07 03:22:13;;;;;;;0.40;0.40;;;14.20;99.90;;;;;;5092742;28;20245;-79
2023/08/07 03:24:38;;;;;;;0.40;0.40;;;14.30;99.90;;;;;;5085324;28;20707;-79
2023/08/07 03:27:04;;;;;;;0.40;0.40;;;14.30;99.90;;;;;;5071047;28;20193;-79
2023/08/07 03:29:30;;;;;;;0.38;0.38;;;14.40;99.90;;;;;;5054479;28;20216;-79
2023/08/07 03:31:56;;;;;;;0.32;0.32;;;14.40;99.90;;;;;;5072981;28;20275;-85
2023/08/07 03:34:22;;;;;;;0.43;0.43;;;14.50;99.90;;;;;;5072095;28;20196;-87
2023/08/07 03:36:47;;;;;;;0.50;0.50;;;14.50;99.90;;;;;;5072930;28;20197;-87
2023/08/07 03:39:13;;;;;;;0.30;0.30;;;14.60;99.90;;;;;;5072483;28;20188;-87
2023/08/07 03:41:39;;;;;;;0.40;0.40;;;14.70;99.90;;;;;;5072941;28;20192;-86
2023/08/07 03:44:05;;;;;;;0.30;0.30;;;14.70;99.90;;;;;;5073035;28;20246;-88
2023/08/07 03:46:31;;;;;;;0.40;0.40;;;14.80;99.90;;;;;;5072960;28;20193;-87
2023/08/07 03:48:56;;;;;;;0.30;0.30;;;14.80;99.90;;;;;;5052675;28;20189;-87
2023/08/07 03:51:22;;;;;;;0.47;0.47;;;14.90;99.90;;;;;;5052892;28;20182;-86
2023/08/07 03:53:49;;;;;;;0.20;0.20;;;14.90;99.90;;;;;;5062344;28;20224;-88
2023/08/07 03:56:15;;;;;;;0.35;0.35;;;15.00;99.90;;;;;;5072756;28;20201;-87
2023/08/07 03:58:41;;;;;;;0.40;0.40;;;15.10;99.90;;;;;;5072891;28;20234;-86
2023/08/07 04:01:06;;;;;;;0.30;0.30;;;15.10;99.90;;;;;;5072790;28;20200;-86
2023/08/07 04:03:32;;;;;;;0.40;0.40;;;15.10;99.90;;;;;;5072229;28;20205;-85
2023/08/07 04:06:00;;;;;;;0.40;0.40;;;15.20;99.90;;;;;;5072557;28;20223;-86
2023/08/07 04:08:26;;;;;;;0.30;0.30;;;15.20;99.90;;;;;;5072541;28;20196;-88
2023/08/07 04:11:03;;;;;;;0.40;0.40;;;15.30;99.90;;;;;;5054604;28;20655;-85
2023/08/07 04:13:29;;;;;;;0.30;0.30;;;15.30;99.90;;;;;;5072307;28;20671;-87
2023/08/07 04:15:55;;;;;;;0.30;0.30;;;15.40;99.90;;;;;;5071927;28;20699;-85
2023/08/07 04:18:20;;;;;;;0.40;0.40;;;15.40;99.90;;;;;;5054036;28;20197;-85
2023/08/07 04:20:53;;;;;;;0.30;0.30;;;15.40;99.90;;;;;;5072314;28;20246;-88
2023/08/07 04:23:19;;;;;;;0.40;0.40;;;15.40;99.90;;;;;;5072275;28;20217;-87
2023/08/07 04:25:47;;;;;;;0.45;0.45;;;15.40;99.90;;;;;;5072451;28;20682;-88
2023/08/07 04:28:13;;;;;;;0.30;0.30;;;15.40;99.90;;;;;;5072416;28;20189;-85
2023/08/07 04:30:39;;;;;;;0.50;0.45;;;15.40;99.90;;;;;;5072411;28;20656;-86
2023/08/07 04:33:04;;;;;;;0.30;0.30;;;15.50;99.90;;;;;;5072605;28;20204;-86
2023/08/07 04:35:31;;;;;;;0.32;0.32;;;15.50;99.90;;;;;;5082648;28;20204;-86
2023/08/07 04:37:57;;;;;;;0.30;0.30;;;15.50;99.90;;;;;;5071115;28;20288;-87
2023/08/07 04:40:22;;;;;;;0.30;0.30;;;15.60;99.90;;;;;;5071143;28;20328;-85
2023/08/07 04:42:52;;;;;;;0.30;0.30;;;15.70;99.90;;;;;;5072299;28;20204;-88
2023/08/07 04:45:17;;;;;;;0.50;0.50;;;15.80;99.90;;;;;;5073497;28;20192;-88
2023/08/07 04:47:43;;;;;;;0.40;0.40;;;15.80;99.90;;;;;;5075953;28;20197;-88
2023/08/07 04:50:09;;;;;;;0.40;0.40;;;15.90;99.90;;;;;;5075752;28;20200;-86
2023/08/07 04:52:36;;;;;;;0.30;0.30;;;15.90;99.90;;;;;;5075304;28;20189;-87
2023/08/07 04:55:01;;;;;;;0.30;0.30;;;15.90;99.90;;;;;;5075805;28;20240;-87
2023/08/07 04:57:27;;;;;;;0.45;0.45;;;16.00;99.90;;;;;;5075642;28;20193;-90
2023/08/07 04:59:53;;;;;;;0.40;0.40;;;16.00;99.90;;;;;;5058625;28;20193;-87
2023/08/07 05:02:19;;;;;;;0.85;0.57;;;16.00;99.90;;;;;;5075613;28;20208;-88
2023/08/07 05:04:45;;;;;;;0.52;0.40;;;16.10;99.90;;;;;;5076025;28;20303;-89
2023/08/07 05:07:15;;;;;;;0.20;0.20;;;16.10;99.90;;;;;;5076704;28;20273;-88
2023/08/07 05:09:40;;;;;;;0.30;0.30;;;16.10;99.90;;;;;;5058266;28;20193;-89
2023/08/07 05:12:07;;;;;;;0.30;0.30;;;16.20;99.90;;;;;;5076419;28;20235;-90
2023/08/07 05:14:33;;;;;;;0.30;0.30;;;16.20;99.90;;;;;;5076467;28;20647;-90
2023/08/07 05:16:59;;;;;;;0.30;0.30;;;16.30;99.90;;;;;;5058509;28;20248;-89
2023/08/07 05:19:25;;;;;;;0.38;0.38;;;16.30;99.90;;;;;;5076015;28;20205;-89
2023/08/07 05:21:51;;;;;;;0.30;0.30;;;16.40;99.90;;;;;;5075689;28;20559;-90
2023/08/07 05:24:18;;;;;;;0.40;0.40;;;16.40;99.90;;;;;;5075995;28;20219;-89
2023/08/07 05:26:44;;;;;;;0.35;0.35;;;16.40;99.90;;;;;;5074936;28;20185;-89
2023/08/07 05:29:10;;;;;;;0.25;0.25;;;16.50;99.90;;;;;;5057734;28;20193;-90
2023/08/07 05:31:36;;;;;;;0.38;0.38;;;16.50;99.90;;;;;;5075514;28;20189;-89
2023/08/07 05:34:02;;;;;;;0.43;0.43;;;16.60;99.90;;;;;;5075995;28;20196;-90
2023/08/07 05:36:28;;;;;;;0.30;0.30;;;16.70;99.90;;;;;;5074359;28;20533;-88
2023/08/07 05:38:54;;;;;;;0.30;0.30;;;16.70;99.90;;;;;;5075658;28;20709;-88
2023/08/07 05:41:20;;;;;;;0.82;0.45;;;16.80;99.90;;;;;;5074209;28;20197;-87
2023/08/07 05:43:45;;;;;;;0.30;0.30;;;16.80;99.90;;;;;;5057919;28;20262;-90
2023/08/07 05:46:11;;;;;;;0.30;0.30;;;16.80;99.90;;;;;;5057980;28;20197;-89
2023/08/07 05:48:37;;;;;;;0.20;0.20;;;16.70;99.90;;;;;;5057320;28;20197;-89
2023/08/07 05:51:03;;;;;;;0.30;0.30;;;16.80;99.90;;;;;;5075616;28;20558;-87
2023/08/07 05:53:29;;;;;;;0.30;0.30;;;16.70;99.90;;;;;;5074086;28;20192;-78
2023/08/07 05:55:55;;;;;;;0.30;0.30;;;16.80;99.90;;;;;;5073076;28;20216;-79
2023/08/07 05:58:21;;;;;;;0.40;0.40;;;16.70;99.90;;;;;;5055658;28;20197;-78
2023/08/07 06:00:46;;;;;;;0.38;0.38;;;16.70;99.90;;;;;;5073677;28;20223;-79
2023/08/07 06:03:12;;;;;;;0.30;0.30;;;16.80;99.90;;;;;;5073610;28;20240;-79
2023/08/07 06:05:38;;;;;;;0.30;0.30;;;16.80;99.90;;;;;;5088390;28;20272;-79
2023/08/07 06:08:04;;;;;;;0.30;0.30;;;16.80;99.90;;;;;;5094185;28;20189;-79
2023/08/07 06:10:30;;;;;;;0.30;0.30;;;16.80;99.90;;;;;;5093759;28;20659;-79
2023/08/07 06:12:56;;;;;;;0.32;0.32;;;16.80;99.90;;;;;;5075780;28;20290;-79
2023/08/07 06:15:21;;;;;;;0.40;0.40;;;16.80;99.90;;;;;;5075360;28;20237;-79
2023/08/07 06:17:47;;;;;;;0.30;0.30;;;16.80;99.90;;;;;;5093827;28;20200;-79
2023/08/07 06:20:15;;;;;;;0.40;0.40;;;16.80;99.90;;;;;;5093636;28;20221;-79
2023/08/07 06:22:41;;;;;;;0.30;0.30;;;16.90;99.90;;;;;;5075259;28;20208;-78
2023/08/07 06:25:08;;;;;;;0.30;0.30;;;16.90;99.90;;;;;;5093476;28;20199;-79
2023/08/07 06:27:34;;;;;;;0.35;0.35;;;16.90;99.90;;;;;;5091946;28;20215;-79
2023/08/07 06:29:59;;;;;;;0.30;0.30;;;16.90;99.90;;;;;;5093620;28;20188;-79
2023/08/07 06:32:26;;;;;;;0.60;0.60;;;16.90;99.90;;;;;;5093125;28;20204;-78
2023/08/07 06:34:52;;;;;;;0.30;0.30;;;16.90;99.90;;;;;;5093451;28;20195;-79
2023/08/07 06:37:18;;;;;;;0.40;0.40;;;16.90;99.90;;;;;;5092076;28;20200;-79
2023/08/07 06:39:46;;;;;;;0.30;0.30;;;17.00;99.90;;;;;;5073768;28;20207;-78
2023/08/07 06:42:12;;;;;;;0.45;0.45;;;17.00;99.90;;;;;;5079583;28;20211;-79
2023/08/07 06:44:38;;;;;;;0.40;0.40;;;17.10;99.90;;;;;;5074825;28;20199;-79
2023/08/07 06:47:03;;;;;;;0.65;0.32;;;17.10;99.90;;;;;;5075080;28;20192;-79
2023/08/07 06:49:31;;;;;;;0.75;0.57;;;17.10;99.90;;;;;;5092883;28;20277;-79
2023/08/07 06:51:57;;;;;;;0.85;0.40;;;17.10;99.90;;;;;;5093126;28;20718;-79
2023/08/07 06:54:23;;;;;;;0.40;0.40;;;17.20;99.90;;;;;;5074786;28;20278;-79
2023/08/07 06:56:49;;;;;;;0.20;0.20;;;17.20;99.90;;;;;;5093423;28;20279;-79
2023/08/07 06:59:15;;;;;;;0.52;0.52;;;17.20;99.90;;;;;;5092937;28;20257;-79
2023/08/07 07:01:40;;;;;;;2.40;0.93;;;17.20;99.90;;;;;;5074440;28;20196;-79
2023/08/07 07:04:06;;;;;;;0.98;0.57;;;17.30;99.90;;;;;;5072855;28;20227;-80
2023/08/07 07:06:33;;;;;;;0.47;0.47;;;17.30;99.90;;;;;;5072253;28;20663;-80
2023/08/07 07:08:58;;;;;;;0.30;0.30;;;17.40;99.90;;;;;;5054658;28;20196;-80
2023/08/07 07:11:24;;;;;;;0.40;0.40;;;17.40;99.90;;;;;;5072398;28;20235;-81
2023/08/07 07:13:51;;;;;;;0.30;0.30;;;17.40;99.90;;;;;;5071492;28;20197;-80
2023/08/07 07:16:18;;;;;;;0.38;0.38;;;17.40;99.90;;;;;;5054860;28;20356;-81
2023/08/07 07:18:44;;;;;;;0.30;0.30;;;17.50;99.90;;;;;;5038014;28;20292;-81
2023/08/07 07:21:09;;;;;;;0.43;0.43;;;17.50;99.90;;;;;;5072641;28;20216;-81
2023/08/07 07:23:35;;;;;;;0.47;0.47;;;17.50;99.90;;;;;;5054413;28;20731;-81
2023/08/07 07:26:01;;;;;;;0.47;0.47;;;17.50;99.90;;;;;;5072470;28;20233;-80
2023/08/07 07:28:27;;;;;;;0.50;0.50;;;17.60;99.90;;;;;;5071918;28;20733;-81
2023/08/07 07:30:53;;;;;;;0.40;0.40;;;17.60;99.90;;;;;;5072384;28;20201;-80
2023/08/07 07:33:22;;;;;;;0.40;0.40;;;17.70;99.90;;;;;;5072342;28;20257;-80
2023/08/07 07:35:48;;;;;;;1.00;0.95;;;17.80;99.90;;;;;;5054288;28;20263;-80
2023/08/07 07:38:15;;;;;;;0.70;0.50;;;17.80;99.90;;;;;;5057123;28;20200;-80
2023/08/07 07:40:40;;;;;;;0.30;0.30;;;17.90;99.90;;;;;;5054126;28;20735;-80
2023/08/07 07:43:06;;;;;;;0.32;0.32;;;17.90;99.90;;;;;;5072282;28;20295;-80
2023/08/07 07:45:35;;;;;;;0.30;0.30;;;18.00;99.90;;;;;;5072152;28;20276;-80
2023/08/07 07:48:01;;;;;;;0.50;0.50;;;18.00;99.90;;;;;;5072149;28;20569;-80
2023/08/07 07:50:27;;;;;;;2.22;1.15;;;18.00;99.90;;;;;;5053992;28;20185;-80
2023/08/07 07:52:53;;;;;;;0.30;0.30;;;18.10;99.90;;;;;;5054092;28;20250;-80
2023/08/07 07:55:19;;;;;;;0.88;0.77;;;18.10;99.90;;;;;;5071876;28;20259;-80
2023/08/07 07:57:45;;;;;;;3.38;0.93;;;18.20;99.90;;;;;;5072012;28;20192;-80
2023/08/07 08:00:12;;;;;;;0.32;0.32;;;18.30;99.90;;;;;;5054290;28;20690;-80
2023/08/07 08:02:42;;;;;;;0.57;0.57;;;18.40;99.90;;;;;;5071992;28;20208;-80
2023/08/07 08:05:10;;;;;;;0.63;0.63;;;18.50;99.90;;;;;;5071843;28;20585;-80
2023/08/07 08:07:39;;;;;;;0.60;0.60;;;18.50;99.90;;;;;;5053833;28;20193;-80
2023/08/07 08:10:08;;;;;;;1.00;0.65;;;18.60;99.90;;;;;;5071940;28;20682;-80
2023/08/07 08:12:37;;;;;;;0.65;0.65;;;18.70;99.90;;;;;;5054570;28;20288;-88
2023/08/07 08:15:04;;;;;;;0.47;0.47;;;18.70;99.90;;;;;;5073359;28;20253;-87
2023/08/07 08:17:30;;;;;;;0.68;0.68;;;18.70;99.90;;;;;;5072902;28;20272;-87
2023/08/07 08:19:56;;;;;;;0.60;0.60;;;18.80;99.90;;;;;;5057473;28;20225;-88
2023/08/07 08:22:22;;;;;;;0.30;0.30;;;18.80;99.90;;;;;;5076073;28;20608;-88
2023/08/07 08:24:48;;;;;;;0.50;0.50;;;18.90;99.90;;;;;;5076924;28;20211;-89
2023/08/07 08:27:13;;;;;;;0.60;0.60;;;18.90;99.90;;;;;;5075845;28;20723;-88
2023/08/07 08:29:39;;;;;;;0.63;0.63;;;18.90;99.90;;;;;;5076857;28;20228;-88
2023/08/07 08:32:05;;;;;;;1.13;0.98;;;18.90;99.90;;;;;;5076884;28;20729;-89
2023/08/07 08:34:31;;;;;;;1.48;0.65;;;19.00;99.90;;;;;;5076115;28;20212;-90
2023/08/07 08:36:57;;;;;;;0.30;0.30;;;19.00;99.90;;;;;;5077000;28;20272;-90
2023/08/07 08:39:22;;;;;;;0.52;0.52;;;19.00;99.90;;;;;;5076712;28;20216;-90
2023/08/07 08:41:50;;;;;;;0.73;0.73;;;19.10;99.90;;;;;;5059360;28;20679;-90
2023/08/07 08:44:19;;;;;;;0.60;0.60;;;19.20;99.90;;;;;;5058621;28;20205;-90
2023/08/07 08:46:49;;;;;;;1.27;1.17;;;19.20;99.90;;;;;;5076933;28;20189;-88
2023/08/07 08:49:22;;;;;;;1.70;0.63;;;19.30;99.90;;;;;;5058599;28;20591;-89
2023/08/07 08:51:49;;;;;;;0.65;0.63;;;19.30;99.90;;;;;;5077042;28;20193;-90
2023/08/07 08:54:15;;;;;;;0.50;0.50;;;19.30;99.90;;;;;;5076787;28;20189;-89
2023/08/07 08:56:42;;;;;;;4.97;1.23;;;19.30;99.90;;;;;;5076334;28;20205;-89
2023/08/07 08:59:08;;;;;;;0.75;0.68;;;19.40;99.90;;;;;;5057899;28;20201;-89
2023/08/07 09:01:35;;;;;;;0.35;0.35;;;19.40;99.90;;;;;;5058247;28;20196;-87
2023/08/07 09:04:04;;;;;;;1.77;0.50;;;19.50;99.90;;;;;;5077401;28;20265;-88
2023/08/07 09:06:32;;;;;;;0.55;0.55;;;19.50;99.90;;;;;;5096556;28;20200;-89
2023/08/07 09:08:59;;;;;;;1.40;1.30;;;19.50;99.90;;;;;;5095854;28;20245;-89
2023/08/07 09:11:26;;;;;;;0.68;0.68;;;19.50;99.90;;;;;;5096696;28;20651;-89
2023/08/07 09:13:53;;;;;;;0.70;0.70;;;19.50;99.90;;;;;;5078356;28;20192;-89
2023/08/07 09:16:20;;;;;;;1.10;0.50;;;19.50;99.90;;;;;;5095568;28;20196;-88
2023/08/07 09:18:46;;;;;;;1.35;1.25;;;19.50;99.90;;;;;;5078392;28;20230;-89
2023/08/07 09:21:12;;;;;;;3.83;1.33;;;19.60;99.90;;;;;;5078551;28;20275;-88
2023/08/07 09:23:37;;;;;;;0.80;0.80;;;19.70;99.90;;;;;;5095058;28;20306;-81
2023/08/07 09:26:05;;;;;;;1.40;1.13;;;19.70;99.90;;;;;;5077033;28;20188;-80
2023/08/07 09:28:32;;;;;;;1.73;1.23;;;19.80;99.90;;;;;;5094732;28;20727;-81
2023/08/07 09:31:01;;;;;;;1.58;1.17;;;19.90;99.90;;;;;;5093498;28;20205;-80
2023/08/07 09:33:28;;;;;;;1.42;1.33;;;20.00;99.90;;;;;;5076602;28;20204;-80
2023/08/07 09:36:01;;;;;;;0.70;0.70;;;20.00;99.90;;;;;;5094452;28;20253;-78
2023/08/07 09:38:32;;;;;;;2.60;1.48;;;20.10;99.90;;;;;;5094406;28;20279;-81
2023/08/07 09:41:03;;;;;;;0.93;0.75;;;20.20;99.90;;;;;;5094663;28;20189;-80
2023/08/07 09:43:29;;;;;;;0.60;0.60;;;20.20;99.90;;;;;;5094345;28;20204;-80
2023/08/07 09:46:07;;;;;;;1.30;1.17;;;20.30;99.90;;;;;;5094827;28;20199;-80
2023/08/07 09:48:40;;;;;;;1.10;1.02;;;20.20;99.90;;;;;;5094600;28;20675;-81
2023/08/07 09:51:06;;;;;;;1.35;1.23;;;20.20;99.90;;;;;;5093525;28;20247;-79
2023/08/07 09:53:32;;;;;;;1.38;1.17;;;20.20;99.90;;;;;;5094324;28;20596;-81
2023/08/07 09:55:59;;;;;;;1.83;1.08;;;20.10;99.90;;;;;;5094467;28;20272;-80
2023/08/07 09:58:24;;;;;;;0.98;0.90;;;20.20;99.90;;;;;;5089235;28;20192;-81
2023/08/07 10:00:53;;;;;;;21.48;2.65;;;20.20;99.90;;;;;;5076110;28;20203;-80
2023/08/07 10:03:19;;;;;;;1.00;1.00;;;20.20;99.90;;;;;;5094012;28;20200;-81
2023/08/07 10:05:45;;;;;;;0.90;0.90;;;20.20;99.90;;;;;;5094092;28;20231;-80
2023/08/07 10:08:12;;;;;;;1.23;0.85;;;20.20;99.90;;;;;;5092733;28;20193;-81
2023/08/07 10:10:39;;;;;;;1.02;1.02;;;20.20;99.90;;;;;;5094186;28;20188;-80
2023/08/07 10:13:05;;;;;;;1.42;1.23;;;20.20;99.90;;;;;;5093650;28;20203;-80
2023/08/07 10:15:32;;;;;;;2.22;1.55;;;20.20;99.90;;;;;;5076129;28;20223;-81
2023/08/07 10:17:58;;;;;;;1.23;1.13;;;20.40;99.90;;;;;;5094015;28;20196;-80
2023/08/07 10:20:28;;;;;;;0.82;0.73;;;20.40;99.90;;;;;;5093645;28;20197;-80
2023/08/07 10:23:00;;;;;;;1.20;1.13;;;20.50;99.90;;;;;;5093563;28;20566;-80
2023/08/07 10:25:28;;;;;;;2.47;1.23;;;20.50;99.90;;;;;;5093666;28;20191;-80
2023/08/07 10:27:57;;;;;;;2.20;1.33;;;20.60;99.90;;;;;;5093764;28;20204;-80
2023/08/07 10:30:25;;;;;;;1.23;1.13;;;20.70;99.90;;;;;;5093466;28;20631;-80
2023/08/07 10:32:51;;;;;;;1.25;1.15;;;20.80;99.90;;;;;;5094112;28;20196;-88
2023/08/07 10:35:30;;;;;;;0.90;0.90;;;20.80;99.90;;;;;;5094838;28;20220;-89
2023/08/07 10:38:09;;;;;;;2.08;1.52;;;20.90;99.90;;;;;;5095113;28;20275;-90
2023/08/07 10:41:02;;;;;;;1.15;1.08;;;21.00;99.90;;;;;;5076709;28;20200;-90
2023/08/07 10:43:28;;;;;;;1.95;1.23;;;21.00;99.90;;;;;;5094497;28;20296;-89
2023/08/07 10:46:05;;;;;;;1.40;1.30;;;21.10;99.90;;;;;;5076486;28;20188;-87
2023/08/07 10:48:47;;;;;;;1.40;1.30;;;21.20;99.90;;;;;;5093270;28;20736;-89
2023/08/07 10:51:29;;;;;;;1.67;1.50;;;21.30;99.90;;;;;;5076837;28;20196;-89
2023/08/07 10:53:56;;;;;;;1.63;1.50;;;21.20;99.90;;;;;;5094625;28;20210;-89
2023/08/07 10:56:34;;;;;;;2.25;1.50;;;21.20;99.90;;;;;;5076063;28;20231;-88
2023/08/07 10:59:09;;;;;;;4.82;2.63;;;21.30;99.90;;;;;;5094601;28;20196;-90
2023/08/07 11:01:38;;;;;;;1.98;1.35;;;21.20;99.90;;;;;;5075582;28;20203;-90
2023/08/07 11:04:10;;;;;;;7.68;1.60;;;21.30;99.90;;;;;;5074167;28;20252;-88
2023/08/07 11:06:37;;;;;;;1.65;1.55;;;21.30;99.90;;;;;;5073788;28;20199;-88
2023/08/07 11:09:05;;;;;;;1.35;1.02;;;21.30;99.90;;;;;;5056267;28;20655;-87
2023/08/07 11:11:43;;;;;;;2.78;1.88;;;21.30;99.90;;;;;;5074044;28;20185;-89
2023/08/07 11:14:17;;;;;;;1.27;1.17;;;21.30;99.90;;;;;;5056050;28;20731;-88
2023/08/07 11:16:44;;;;;;;2.42;2.13;;;21.30;99.90;;;;;;5056027;28;20197;-89
2023/08/07 11:19:11;;;;;;;6.13;2.72;;;21.30;99.90;;;;;;5055706;28;20196;-87
2023/08/07 11:21:37;;;;;;;1.42;1.25;;;21.30;99.90;;;;;;5073755;28;20276;-89
2023/08/07 11:24:03;;;;;;;1.55;1.27;;;21.30;99.90;;;;;;5055534;28;20235;-86
2023/08/07 11:26:29;;;;;;;2.38;1.52;;;21.20;99.90;;;;;;5073840;28;20652;-89
2023/08/07 11:28:56;;;;;;;1.70;1.48;;;21.30;99.90;;;;;;5073747;28;20780;-88
2023/08/07 11:31:24;;;;;;;0.77;0.77;;;21.30;99.90;;;;;;5055577;28;20189;-89
2023/08/07 11:33:54;;;;;;;1.00;0.90;;;21.20;99.90;;;;;;5073444;28;20189;-88
2023/08/07 11:36:20;;;;;;;1.98;1.55;;;21.30;99.90;;;;;;5072869;28;20483;-86
2023/08/07 11:38:46;;;;;;;2.72;2.03;;;21.30;99.90;;;;;;5072798;28;20199;-89
2023/08/07 11:41:14;;;;;;;1.83;1.33;;;21.40;99.90;;;;;;5073886;28;20605;-88
2023/08/07 11:43:40;;;;;;;3.20;1.80;;;21.40;99.90;;;;;;5073593;28;20205;-78
2023/08/07 11:46:11;;;;;;;1.38;1.20;;;21.40;99.90;;;;;;5070844;28;20619;-79
2023/08/07 11:48:39;;;;;;;1.33;1.08;;;21.50;99.90;;;;;;5070736;28;20221;-78
2023/08/07 11:51:06;;;;;;;1.63;1.50;;;21.50;99.90;;;;;;5071997;28;20188;-78
2023/08/07 11:53:35;;;;;;;1.35;1.25;;;21.50;99.90;;;;;;5072094;28;20656;-78
2023/08/07 11:56:14;;;;;;;2.53;1.42;;;21.60;99.90;;;;;;5076320;28;20698;-78
2023/08/07 11:58:45;;;;;;;1.73;1.63;;;21.70;99.90;;;;;;5076248;28;20223;-79
2023/08/07 12:01:16;;;;;;;0.77;0.77;;;21.90;99.90;;;;;;5058324;28;20197;-78
2023/08/07 12:04:09;;;;;;;2.20;2.00;;;22.10;99.90;;;;;;5075788;28;20694;-78
2023/08/07 12:06:39;;;;;;;1.83;1.70;;;22.50;99.90;;;;;;5071840;28;20302;-80
2023/08/07 12:09:11;;;;;;;1.15;1.05;;;22.70;99.90;;;;;;5058076;28;20218;-78
2023/08/07 12:11:36;;;;;;;2.22;1.77;;;22.70;99.90;;;;;;5075818;28;20667;-78
2023/08/07 12:14:02;;;;;;;1.58;1.48;;;22.70;99.90;;;;;;5075973;28;20223;-78
2023/08/07 12:16:35;;;;;;;3.70;2.13;;;22.70;99.90;;;;;;5075563;28;20200;-78
2023/08/07 12:19:02;;;;;;;3.15;1.60;;;22.50;99.90;;;;;;5057920;28;20230;-78
2023/08/07 12:21:28;;;;;;;1.50;1.40;;;22.40;99.90;;;;;;5075647;28;20189;-78
2023/08/07 12:23:57;;;;;;;1.90;1.38;;;22.20;99.90;;;;;;5074330;28;20212;-78
2023/08/07 12:26:23;;;;;;;2.47;1.95;;;22.00;99.90;;;;;;5075432;28;20250;-78
2023/08/07 12:28:49;;;;;;;2.33;1.48;;;21.90;99.90;;;;;;5075528;28;20221;-77
2023/08/07 12:31:16;;;;;;;4.18;2.00;;;21.80;99.90;;;;;;5075553;28;20557;-78
2023/08/07 12:33:41;;;;;;;1.90;1.42;;;21.90;99.90;;;;;;5074979;28;20655;-79
2023/08/07 12:36:08;;;;;;;2.55;1.80;;;22.30;99.90;;;;;;5058724;28;20207;-78
2023/08/07 12:38:33;;;;;;;1.90;1.50;;;23.10;99.90;;;;;;5057773;28;20552;-79
2023/08/07 12:40:59;;;;;;;2.10;1.83;;;24.00;99.90;;;;;;5075492;28;20273;-78
2023/08/07 12:43:26;;;;;;;2.42;1.52;;;24.90;99.90;;;;;;5057248;28;20310;-79
2023/08/07 12:45:52;;;;;;;3.00;2.20;;;25.60;99.90;;;;;;5075390;28;20215;-78
2023/08/07 12:48:21;;;;;;;1.95;1.73;;;26.20;99.90;;;;;;5057129;28;20555;-82